Time;durP1;ratioP1;P1;durP2;ratioP2;P2;SDS_P1;SDS_P2;PMS_P1;PMS_P2;Temp;Humidity;BMP_temperature;BMP_pressure;BME280_temperature;BME280_humidity;BME280_pressure;Samples;Min_cycle;Max_cycle;Signal;HPM_P1;HPM_P2
2023/06/29 00:00:15;;;;;;;26.00;23.20;;;19.70;99.90;;;;;;5070133;28;20464;-85
2023/06/29 00:02:41;;;;;;;27.90;23.52;;;19.70;99.90;;;;;;5069921;28;20028;-84
2023/06/29 00:05:08;;;;;;;26.67;23.77;;;19.70;99.90;;;;;;5053368;28;20029;-85
2023/06/29 00:07:34;;;;;;;29.55;24.85;;;19.70;99.90;;;;;;5070051;28;20044;-84
2023/06/29 00:10:00;;;;;;;27.95;24.90;;;19.70;99.90;;;;;;5069794;28;20032;-85
2023/06/29 00:12:27;;;;;;;25.88;23.17;;;19.70;99.90;;;;;;5070270;28;20093;-85
2023/06/29 00:14:53;;;;;;;30.33;25.95;;;19.70;99.90;;;;;;5069731;28;20032;-84
2023/06/29 00:17:20;;;;;;;28.40;23.90;;;19.70;99.90;;;;;;5069907;28;20375;-85
2023/06/29 00:19:47;;;;;;;26.58;23.40;;;19.70;99.90;;;;;;5069629;28;20036;-84
2023/06/29 00:22:13;;;;;;;28.00;23.48;;;19.70;99.90;;;;;;5053015;28;20439;-84
2023/06/29 00:24:42;;;;;;;26.88;24.05;;;19.70;99.90;;;;;;5050923;28;20037;-85
2023/06/29 00:27:15;;;;;;;29.58;23.42;;;19.70;99.90;;;;;;5052983;28;20040;-84
2023/06/29 00:29:42;;;;;;;26.50;23.70;;;19.70;99.90;;;;;;5067207;28;20170;-84
2023/06/29 00:32:10;;;;;;;28.50;23.90;;;19.70;99.90;;;;;;5053124;28;20043;-85
2023/06/29 00:34:37;;;;;;;27.05;24.15;;;19.70;99.90;;;;;;5069745;28;20036;-85
2023/06/29 00:37:03;;;;;;;26.90;23.83;;;19.70;99.90;;;;;;5073241;28;20043;-84
2023/06/29 00:39:29;;;;;;;24.90;22.30;;;19.60;99.90;;;;;;5073691;28;20043;-84
2023/06/29 00:41:55;;;;;;;27.60;24.60;;;19.60;99.90;;;;;;5073875;28;20029;-84
2023/06/29 00:44:22;;;;;;;28.50;25.35;;;19.60;99.90;;;;;;5073800;28;20045;-85
2023/06/29 00:46:49;;;;;;;27.00;23.25;;;19.60;99.90;;;;;;5074422;28;20401;-85
2023/06/29 00:49:15;;;;;;;27.15;24.17;;;19.60;99.90;;;;;;5074351;28;20597;-84
2023/06/29 00:51:41;;;;;;;26.98;24.13;;;19.60;99.90;;;;;;5073972;28;20080;-84
2023/06/29 00:54:06;;;;;;;30.10;24.52;;;19.60;99.90;;;;;;5073966;28;20075;-84
2023/06/29 00:56:33;;;;;;;27.17;23.40;;;19.60;99.90;;;;;;5073970;28;20032;-84
2023/06/29 00:58:59;;;;;;;27.98;23.90;;;19.60;99.90;;;;;;5073868;28;20040;-85
2023/06/29 01:01:27;;;;;;;25.40;22.65;;;19.60;99.90;;;;;;5056799;28;20114;-84
2023/06/29 01:03:55;;;;;;;26.60;23.70;;;19.60;99.90;;;;;;5073744;28;20091;-84
2023/06/29 01:06:27;;;;;;;30.92;24.95;;;19.60;99.90;;;;;;5073801;28;20571;-84
2023/06/29 01:08:55;;;;;;;28.55;24.27;;;19.60;99.90;;;;;;5074038;28;20050;-85
2023/06/29 01:11:22;;;;;;;27.67;23.52;;;19.60;99.90;;;;;;5073620;28;20040;-84
2023/06/29 01:13:50;;;;;;;29.45;23.88;;;19.60;99.90;;;;;;5073335;28;20083;-84
2023/06/29 01:16:17;;;;;;;27.45;24.25;;;19.60;99.90;;;;;;5073477;28;20387;-84
2023/06/29 01:18:45;;;;;;;30.35;24.55;;;19.60;99.90;;;;;;5073494;28;20032;-84
2023/06/29 01:21:12;;;;;;;25.85;23.15;;;19.60;99.90;;;;;;5056619;28;20036;-85
2023/06/29 01:23:39;;;;;;;27.55;23.33;;;19.50;99.90;;;;;;5073345;28;20040;-84
2023/06/29 01:26:05;;;;;;;26.85;23.33;;;19.60;99.90;;;;;;5073071;28;20043;-84
2023/06/29 01:28:32;;;;;;;27.73;23.33;;;19.50;99.90;;;;;;5073427;28;20055;-84
2023/06/29 01:31:02;;;;;;;25.83;23.02;;;19.50;99.90;;;;;;5072977;28;20051;-84
2023/06/29 01:33:30;;;;;;;28.13;23.08;;;19.50;99.90;;;;;;5073212;28;20047;-84
2023/06/29 01:36:02;;;;;;;28.17;23.60;;;19.50;99.90;;;;;;5073144;28;20041;-84
2023/06/29 01:38:43;;;;;;;25.60;22.83;;;19.50;99.90;;;;;;5073417;28;20044;-84
2023/06/29 01:41:13;;;;;;;27.25;23.30;;;19.50;99.90;;;;;;5073112;28;20544;-84
2023/06/29 01:43:39;;;;;;;25.85;21.60;;;19.50;99.90;;;;;;5073091;28;20406;-85
2023/06/29 01:46:05;;;;;;;25.50;22.25;;;19.50;99.90;;;;;;5072952;28;20484;-84
2023/06/29 01:48:32;;;;;;;26.02;22.05;;;19.50;99.90;;;;;;5072211;28;20071;-84
2023/06/29 01:50:58;;;;;;;26.67;22.75;;;19.50;99.90;;;;;;5072896;28;20044;-84
2023/06/29 01:53:24;;;;;;;25.10;22.35;;;19.50;99.90;;;;;;5072872;28;20409;-84
2023/06/29 01:55:49;;;;;;;26.77;23.60;;;19.50;99.90;;;;;;5072670;28;20045;-84
2023/06/29 01:58:15;;;;;;;26.75;22.08;;;19.50;99.90;;;;;;5072790;28;20067;-85
2023/06/29 02:00:40;;;;;;;24.38;21.85;;;19.50;99.90;;;;;;5072833;28;20086;-84
2023/06/29 02:03:06;;;;;;;25.02;21.83;;;19.50;99.90;;;;;;5072621;28;20047;-84
2023/06/29 02:05:31;;;;;;;25.00;21.55;;;19.50;99.90;;;;;;5072690;28;20040;-84
2023/06/29 02:07:57;;;;;;;26.83;21.35;;;19.40;99.90;;;;;;5055839;28;20509;-85
2023/06/29 02:10:23;;;;;;;28.27;23.30;;;19.50;99.90;;;;;;5072390;28;20036;-84
2023/06/29 02:12:48;;;;;;;27.10;21.75;;;19.50;99.90;;;;;;5072330;28;20041;-84
2023/06/29 02:15:14;;;;;;;26.17;21.70;;;19.40;99.90;;;;;;5055881;28;20051;-84
2023/06/29 02:17:39;;;;;;;25.20;22.00;;;19.40;99.90;;;;;;5072529;28;20516;-84
2023/06/29 02:20:09;;;;;;;23.98;21.30;;;19.40;99.90;;;;;;5071997;28;20040;-85
2023/06/29 02:22:35;;;;;;;25.90;21.67;;;19.40;99.90;;;;;;5055965;28;20040;-84
2023/06/29 02:25:00;;;;;;;25.83;21.00;;;19.50;99.90;;;;;;5072291;28;20040;-84
2023/06/29 02:27:26;;;;;;;24.00;20.30;;;19.40;99.90;;;;;;5072087;28;20038;-84
2023/06/29 02:29:51;;;;;;;24.15;21.45;;;19.40;99.90;;;;;;5072154;28;20040;-84
2023/06/29 02:32:17;;;;;;;24.67;20.35;;;19.40;99.90;;;;;;5072225;28;20505;-84
2023/06/29 02:34:43;;;;;;;25.05;20.58;;;19.40;99.90;;;;;;5071930;28;20044;-84
2023/06/29 02:37:08;;;;;;;27.02;20.95;;;19.40;99.90;;;;;;5072341;28;20040;-84
2023/06/29 02:39:34;;;;;;;25.90;20.63;;;19.40;99.90;;;;;;5055134;28;20512;-84
2023/06/29 02:41:59;;;;;;;23.17;20.60;;;19.40;99.90;;;;;;5071973;28;20040;-84
2023/06/29 02:44:25;;;;;;;26.25;21.38;;;19.40;99.90;;;;;;5072207;28;20101;-84
2023/06/29 02:46:50;;;;;;;25.83;21.95;;;19.40;99.90;;;;;;5071944;28;20513;-84
2023/06/29 02:49:16;;;;;;;24.67;21.60;;;19.40;99.90;;;;;;5071741;28;20036;-85
2023/06/29 02:51:42;;;;;;;24.10;21.27;;;19.40;99.90;;;;;;5054768;28;20410;-84
2023/06/29 02:54:07;;;;;;;24.73;21.48;;;19.40;99.90;;;;;;5071752;28;20105;-85
2023/06/29 02:56:33;;;;;;;25.40;21.63;;;19.40;99.90;;;;;;5054909;28;20563;-84
2023/06/29 02:58:59;;;;;;;24.80;22.08;;;19.40;99.90;;;;;;5071410;28;20040;-84
2023/06/29 03:01:25;;;;;;;27.42;21.60;;;19.40;99.90;;;;;;5071557;28;20125;-84
2023/06/29 03:03:51;;;;;;;26.35;21.83;;;19.40;99.90;;;;;;5071622;28;20079;-85
2023/06/29 03:06:16;;;;;;;25.45;22.55;;;19.40;99.90;;;;;;5071556;28;20509;-85
2023/06/29 03:08:42;;;;;;;26.70;22.50;;;19.40;99.90;;;;;;5071290;28;20044;-85
2023/06/29 03:11:08;;;;;;;28.65;22.50;;;19.40;99.90;;;;;;5071188;28;20043;-84
2023/06/29 03:13:33;;;;;;;25.85;21.90;;;19.40;99.90;;;;;;5054408;28;20037;-84
2023/06/29 03:16:00;;;;;;;25.85;23.13;;;19.30;99.90;;;;;;5071241;28;20128;-85
2023/06/29 03:18:26;;;;;;;27.08;22.80;;;19.40;99.90;;;;;;5071158;28;20402;-84
2023/06/29 03:20:52;;;;;;;27.67;22.65;;;19.30;99.90;;;;;;5054224;28;20033;-84
2023/06/29 03:23:18;;;;;;;24.95;21.85;;;19.30;99.90;;;;;;5054494;28;20040;-84
2023/06/29 03:25:43;;;;;;;27.02;23.10;;;19.30;99.90;;;;;;5054385;28;20048;-84
2023/06/29 03:28:09;;;;;;;27.23;22.02;;;19.30;99.90;;;;;;5054454;28;20110;-84
2023/06/29 03:30:34;;;;;;;26.58;23.23;;;19.30;99.90;;;;;;5070972;28;20091;-84
2023/06/29 03:33:01;;;;;;;27.85;23.73;;;19.30;99.90;;;;;;5071164;28;20049;-85
2023/06/29 03:35:27;;;;;;;28.65;24.40;;;19.30;99.90;;;;;;5070734;28;20516;-84
2023/06/29 03:37:52;;;;;;;27.38;22.95;;;19.30;99.90;;;;;;5071172;28;20127;-84
2023/06/29 03:40:18;;;;;;;27.05;22.75;;;19.30;99.90;;;;;;5054246;28;20128;-85
2023/06/29 03:42:43;;;;;;;26.08;22.73;;;19.30;99.90;;;;;;5054050;28;20042;-84
2023/06/29 03:45:09;;;;;;;24.38;21.30;;;19.30;99.90;;;;;;5070833;28;20051;-84
2023/06/29 03:47:35;;;;;;;26.42;22.63;;;19.40;99.90;;;;;;5070622;28;20045;-85
2023/06/29 03:50:00;;;;;;;24.70;22.20;;;19.30;99.90;;;;;;5070502;28;20053;-84
2023/06/29 03:52:26;;;;;;;28.95;23.20;;;19.30;99.90;;;;;;5070754;28;20040;-84
2023/06/29 03:54:52;;;;;;;25.83;22.65;;;19.30;99.90;;;;;;5053966;28;20044;-85
2023/06/29 03:57:17;;;;;;;26.05;23.20;;;19.30;99.90;;;;;;5070486;28;20659;-84
2023/06/29 03:59:43;;;;;;;25.92;22.52;;;19.30;99.90;;;;;;5070628;28;20409;-85
2023/06/29 04:02:09;;;;;;;25.02;21.85;;;19.40;99.90;;;;;;5070781;28;20067;-85
2023/06/29 04:04:34;;;;;;;24.50;22.02;;;19.40;99.90;;;;;;5070469;28;20454;-85
2023/06/29 04:07:00;;;;;;;23.92;21.33;;;19.40;99.90;;;;;;5070608;28;20047;-84
2023/06/29 04:09:25;;;;;;;26.73;23.92;;;19.40;99.90;;;;;;5053919;28;20036;-84
2023/06/29 04:11:51;;;;;;;27.92;23.08;;;19.40;99.90;;;;;;5069864;28;20444;-84
2023/06/29 04:14:17;;;;;;;26.75;23.55;;;19.40;99.90;;;;;;5070127;28;20039;-85
2023/06/29 04:16:42;;;;;;;26.90;22.65;;;19.40;99.90;;;;;;5053868;28;20035;-85
2023/06/29 04:19:08;;;;;;;26.88;23.27;;;19.40;99.90;;;;;;5070338;28;20044;-85
2023/06/29 04:21:33;;;;;;;27.63;23.10;;;19.40;99.90;;;;;;5070613;28;20036;-85
2023/06/29 04:23:59;;;;;;;28.27;23.98;;;19.40;99.90;;;;;;5070282;28;20486;-84
2023/06/29 04:26:27;;;;;;;27.85;23.95;;;19.40;99.90;;;;;;5070089;28;20128;-84
2023/06/29 04:29:00;;;;;;;28.90;23.98;;;19.40;99.90;;;;;;5053931;28;20041;-85
2023/06/29 04:31:28;;;;;;;28.00;24.00;;;19.40;99.90;;;;;;5069928;28;20044;-84
2023/06/29 04:33:54;;;;;;;28.27;24.23;;;19.40;99.90;;;;;;5053512;28;20047;-84
2023/06/29 04:36:20;;;;;;;28.40;23.30;;;19.40;99.90;;;;;;5070129;28;20037;-84
2023/06/29 04:38:46;;;;;;;27.65;24.20;;;19.50;99.90;;;;;;5053548;28;20122;-85
2023/06/29 04:41:12;;;;;;;26.70;23.85;;;19.50;99.90;;;;;;5070097;28;20079;-85
2023/06/29 04:43:38;;;;;;;28.15;23.60;;;19.50;99.90;;;;;;5070148;28;20514;-84
2023/06/29 04:46:03;;;;;;;27.42;24.13;;;19.50;99.90;;;;;;5070137;28;20048;-85
2023/06/29 04:48:32;;;;;;;27.95;24.02;;;19.60;99.90;;;;;;5070019;28;20044;-84
2023/06/29 04:51:04;;;;;;;30.33;24.58;;;19.60;99.90;;;;;;5069835;28;20502;-84
2023/06/29 04:53:34;;;;;;;28.00;25.00;;;19.70;99.90;;;;;;5053301;28;20036;-84
2023/06/29 04:56:01;;;;;;;28.70;24.33;;;19.70;99.90;;;;;;5067822;28;20525;-84
2023/06/29 04:58:27;;;;;;;31.27;24.75;;;19.70;99.90;;;;;;5068733;28;20052;-84
2023/06/29 05:00:54;;;;;;;32.45;26.92;;;19.70;99.90;;;;;;5068431;28;20036;-85
2023/06/29 05:03:20;;;;;;;28.80;25.83;;;19.80;99.90;;;;;;5068877;28;20041;-84
2023/06/29 05:05:46;;;;;;;29.52;26.15;;;19.80;99.90;;;;;;5051788;28;20512;-85
2023/06/29 05:08:11;;;;;;;31.45;27.02;;;19.90;99.90;;;;;;5069120;28;20127;-84
2023/06/29 05:10:37;;;;;;;29.77;26.35;;;19.90;99.90;;;;;;5068956;28;20127;-84
2023/06/29 05:13:02;;;;;;;30.08;26.35;;;19.90;99.90;;;;;;5068522;28;20068;-84
2023/06/29 05:15:28;;;;;;;30.83;26.90;;;19.90;99.90;;;;;;5068707;28;20041;-84
2023/06/29 05:17:54;;;;;;;32.20;28.75;;;20.00;99.90;;;;;;5069150;28;20090;-85
2023/06/29 05:20:20;;;;;;;32.45;28.27;;;20.00;99.90;;;;;;5068511;28;20041;-85
2023/06/29 05:22:45;;;;;;;33.10;29.58;;;20.00;99.90;;;;;;5053727;28;20086;-84
2023/06/29 05:25:11;;;;;;;34.85;29.45;;;20.00;99.90;;;;;;5055869;28;20394;-84
2023/06/29 05:27:37;;;;;;;32.88;28.95;;;20.10;99.90;;;;;;5072449;28;20127;-84
2023/06/29 05:30:03;;;;;;;31.50;27.83;;;20.10;99.90;;;;;;5072345;28;20048;-84
2023/06/29 05:32:29;;;;;;;32.00;28.70;;;20.10;99.90;;;;;;5071840;28;20040;-85
2023/06/29 05:34:54;;;;;;;33.70;28.67;;;20.20;99.90;;;;;;5056302;28;20036;-84
2023/06/29 05:37:20;;;;;;;33.15;28.80;;;20.20;99.90;;;;;;5056024;28;20486;-84
2023/06/29 05:39:46;;;;;;;32.38;28.90;;;20.30;99.90;;;;;;5072724;28;20352;-85
2023/06/29 05:42:12;;;;;;;33.25;29.65;;;20.30;99.90;;;;;;5055134;28;20504;-84
2023/06/29 05:44:38;;;;;;;32.20;28.67;;;20.40;99.90;;;;;;5072589;28;20044;-84
2023/06/29 05:47:03;;;;;;;35.05;29.48;;;20.40;99.90;;;;;;5055977;28;20044;-84
2023/06/29 05:49:29;;;;;;;35.05;30.30;;;20.40;99.90;;;;;;5071932;28;20036;-84
2023/06/29 05:51:55;;;;;;;33.50;29.90;;;20.50;99.90;;;;;;5055216;28;20075;-85
2023/06/29 05:54:20;;;;;;;31.38;28.00;;;20.50;99.90;;;;;;5072081;28;20040;-85
2023/06/29 05:56:46;;;;;;;34.10;28.55;;;20.60;99.90;;;;;;5072445;28;20090;-85
2023/06/29 05:59:11;;;;;;;32.88;28.17;;;20.60;99.90;;;;;;5072234;28;20047;-85
2023/06/29 06:01:38;;;;;;;33.08;29.48;;;20.60;99.90;;;;;;5055318;28;20039;-84
2023/06/29 06:04:04;;;;;;;32.10;28.70;;;20.60;99.90;;;;;;5055342;28;20041;-85
2023/06/29 06:06:30;;;;;;;33.92;29.85;;;20.60;99.90;;;;;;5071616;28;20066;-84
2023/06/29 06:08:56;;;;;;;33.25;29.77;;;20.70;99.90;;;;;;5071082;28;20051;-84
2023/06/29 06:11:22;;;;;;;34.13;29.70;;;20.70;99.90;;;;;;5072076;28;20044;-84
2023/06/29 06:13:48;;;;;;;33.33;29.73;;;20.70;99.90;;;;;;5070266;28;20040;-84
2023/06/29 06:16:14;;;;;;;35.55;30.02;;;20.80;99.90;;;;;;5052418;28;20037;-84
2023/06/29 06:18:39;;;;;;;34.58;30.92;;;20.80;99.90;;;;;;5071481;28;20503;-84
2023/06/29 06:21:05;;;;;;;34.10;30.48;;;20.80;99.90;;;;;;5071738;28;20067;-84
2023/06/29 06:23:31;;;;;;;34.47;30.35;;;20.80;99.90;;;;;;5071743;28;20037;-84
2023/06/29 06:25:56;;;;;;;34.97;31.23;;;20.80;99.90;;;;;;5071808;28;20037;-84
2023/06/29 06:28:26;;;;;;;33.17;29.73;;;20.90;99.90;;;;;;5071966;28;20052;-84
2023/06/29 06:30:51;;;;;;;34.65;31.10;;;20.80;99.90;;;;;;5071512;28;20502;-84
2023/06/29 06:33:17;;;;;;;35.63;31.45;;;20.90;99.90;;;;;;5054617;28;20043;-84
2023/06/29 06:35:44;;;;;;;34.20;30.67;;;20.80;99.90;;;;;;5054608;28;20082;-84
2023/06/29 06:38:09;;;;;;;34.22;30.55;;;20.90;99.90;;;;;;5071266;28;20041;-84
2023/06/29 06:40:35;;;;;;;35.55;31.77;;;20.90;99.90;;;;;;5054342;28;20040;-84
2023/06/29 06:43:01;;;;;;;34.72;31.08;;;20.90;99.90;;;;;;5071430;28;20451;-84
2023/06/29 06:45:27;;;;;;;34.42;30.40;;;20.90;99.90;;;;;;5071497;28;20032;-84
2023/06/29 06:47:54;;;;;;;34.58;29.52;;;20.90;99.90;;;;;;5071423;28;20032;-84
2023/06/29 06:50:20;;;;;;;32.95;29.42;;;21.00;99.90;;;;;;5071084;28;20113;-84
2023/06/29 06:52:47;;;;;;;37.05;29.58;;;21.00;99.90;;;;;;5071576;28;20437;-84
2023/06/29 06:55:12;;;;;;;32.55;29.00;;;21.00;99.90;;;;;;5070646;28;20414;-85
2023/06/29 06:57:38;;;;;;;31.85;28.45;;;21.00;99.90;;;;;;5070767;28;20044;-85
2023/06/29 07:00:05;;;;;;;31.63;28.33;;;21.00;99.90;;;;;;5054149;28;20037;-84
2023/06/29 07:02:31;;;;;;;33.05;29.55;;;21.10;99.90;;;;;;5071268;28;20071;-84
2023/06/29 07:04:57;;;;;;;39.88;30.38;;;21.10;99.90;;;;;;5071111;28;20660;-84
2023/06/29 07:07:22;;;;;;;32.80;29.45;;;21.10;99.90;;;;;;5071032;28;20399;-85
2023/06/29 07:09:48;;;;;;;32.78;29.35;;;21.20;99.90;;;;;;5070755;28;20036;-84
2023/06/29 07:12:14;;;;;;;34.20;30.20;;;21.20;99.90;;;;;;5069998;28;20523;-84
2023/06/29 07:14:39;;;;;;;33.35;29.83;;;21.30;99.90;;;;;;5053975;28;20037;-84
2023/06/29 07:17:05;;;;;;;33.58;30.02;;;21.30;99.90;;;;;;5070584;28;20047;-84
2023/06/29 07:19:31;;;;;;;33.72;30.30;;;21.30;99.90;;;;;;5070253;28;20052;-84
2023/06/29 07:21:57;;;;;;;33.28;29.73;;;21.40;99.90;;;;;;5071011;28;20446;-84
2023/06/29 07:24:22;;;;;;;32.47;29.08;;;21.40;99.90;;;;;;5070635;28;20032;-84
2023/06/29 07:26:48;;;;;;;34.78;30.17;;;21.40;99.90;;;;;;5070765;28;20043;-84
2023/06/29 07:29:14;;;;;;;34.15;30.35;;;21.50;99.90;;;;;;5053863;28;20478;-84
2023/06/29 07:31:39;;;;;;;33.03;29.50;;;21.50;99.90;;;;;;5070286;28;20037;-84
2023/06/29 07:34:05;;;;;;;34.85;30.10;;;21.60;99.90;;;;;;5070791;28;20032;-84
2023/06/29 07:36:31;;;;;;;34.67;28.27;;;21.60;99.90;;;;;;5069873;28;20040;-85
2023/06/29 07:38:56;;;;;;;34.40;30.42;;;21.70;99.90;;;;;;5070388;28;20405;-84
2023/06/29 07:41:23;;;;;;;33.33;29.88;;;21.70;99.90;;;;;;5069902;28;20486;-84
2023/06/29 07:43:53;;;;;;;35.67;30.73;;;21.80;99.90;;;;;;5070607;28;20032;-85
2023/06/29 07:46:19;;;;;;;32.65;29.08;;;21.80;99.90;;;;;;5052986;28;20072;-84
2023/06/29 07:48:46;;;;;;;37.60;30.15;;;21.90;99.90;;;;;;5070556;28;20086;-84
2023/06/29 07:51:12;;;;;;;32.42;28.95;;;21.80;99.90;;;;;;5053536;28;20076;-84
2023/06/29 07:53:37;;;;;;;32.97;29.52;;;21.90;99.90;;;;;;5070277;28;20068;-84
2023/06/29 07:56:03;;;;;;;33.28;29.35;;;21.90;99.90;;;;;;5069616;28;20460;-84
2023/06/29 07:58:29;;;;;;;36.72;30.10;;;21.90;99.90;;;;;;5069808;28;20037;-84
2023/06/29 08:00:55;;;;;;;32.75;29.13;;;21.90;99.90;;;;;;5069884;28;20048;-84
2023/06/29 08:03:24;;;;;;;32.45;29.08;;;22.00;99.90;;;;;;5069987;28;20032;-85
2023/06/29 08:05:52;;;;;;;34.47;29.42;;;22.00;99.90;;;;;;5070025;28;20033;-84
2023/06/29 08:08:18;;;;;;;33.10;29.13;;;22.00;99.90;;;;;;5069972;28;20040;-84
2023/06/29 08:10:43;;;;;;;33.60;29.98;;;22.10;99.90;;;;;;5069950;28;20032;-84
2023/06/29 08:13:09;;;;;;;32.85;29.33;;;22.10;99.90;;;;;;5070867;28;20059;-84
2023/06/29 08:15:36;;;;;;;33.53;29.77;;;22.10;99.90;;;;;;5070941;28;20131;-85
2023/06/29 08:18:02;;;;;;;33.05;29.52;;;22.10;99.90;;;;;;5053039;28;20135;-84
2023/06/29 08:20:27;;;;;;;33.05;28.52;;;22.10;99.90;;;;;;5069353;28;20044;-84
2023/06/29 08:22:54;;;;;;;33.90;30.40;;;22.10;99.90;;;;;;5070040;28;20460;-84
2023/06/29 08:25:22;;;;;;;31.73;28.25;;;22.20;99.90;;;;;;5070116;28;20106;-85
2023/06/29 08:27:49;;;;;;;34.55;30.38;;;22.20;99.90;;;;;;5069952;28;20528;-84
2023/06/29 08:30:15;;;;;;;35.55;29.35;;;22.20;99.90;;;;;;5053035;28;20072;-85
2023/06/29 08:32:42;;;;;;;32.78;29.25;;;22.30;99.90;;;;;;5053427;28;20079;-84
2023/06/29 08:35:08;;;;;;;32.30;28.85;;;22.30;99.90;;;;;;5052959;28;20044;-85
2023/06/29 08:37:33;;;;;;;33.30;27.98;;;22.30;99.90;;;;;;5069164;28;20405;-85
2023/06/29 08:39:59;;;;;;;30.15;26.63;;;22.30;99.90;;;;;;5069358;28;20055;-85
2023/06/29 08:42:25;;;;;;;33.10;28.17;;;22.30;99.90;;;;;;5069733;28;20048;-85
2023/06/29 08:44:50;;;;;;;31.17;27.92;;;22.40;99.90;;;;;;5069865;28;20131;-85
2023/06/29 08:47:17;;;;;;;31.88;27.73;;;22.40;99.90;;;;;;5069171;28;20041;-85
2023/06/29 08:49:42;;;;;;;30.67;25.58;;;22.50;99.90;;;;;;5069235;28;20132;-85
2023/06/29 08:52:15;;;;;;;30.65;26.85;;;22.40;99.90;;;;;;5069619;28;20119;-85
2023/06/29 08:54:42;;;;;;;31.30;26.25;;;22.50;99.90;;;;;;5069841;28;20041;-85
2023/06/29 08:57:07;;;;;;;28.70;24.15;;;22.60;99.90;;;;;;5070851;28;20115;-84
2023/06/29 08:59:34;;;;;;;29.17;26.00;;;22.60;99.90;;;;;;5072986;28;20127;-85
2023/06/29 09:02:01;;;;;;;29.05;25.90;;;22.70;99.90;;;;;;5073497;28;20062;-85
2023/06/29 09:04:26;;;;;;;28.55;25.52;;;22.70;99.90;;;;;;5056615;28;20047;-85
2023/06/29 09:06:53;;;;;;;29.27;25.80;;;22.80;99.90;;;;;;5056960;28;20413;-85
2023/06/29 09:09:20;;;;;;;30.73;27.02;;;22.80;99.90;;;;;;5073394;28;20101;-85
2023/06/29 09:11:46;;;;;;;30.67;27.48;;;22.90;99.90;;;;;;5072908;28;20134;-85
2023/06/29 09:14:11;;;;;;;31.60;28.17;;;22.90;99.90;;;;;;5073343;28;20072;-85
2023/06/29 09:16:52;;;;;;;31.13;27.77;;;22.90;99.90;;;;;;5072478;28;20044;-85
2023/06/29 09:19:24;;;;;;;32.85;28.30;;;22.90;99.90;;;;;;5056118;28;20045;-86
2023/06/29 09:21:50;;;;;;;30.05;26.88;;;22.90;99.90;;;;;;5056161;28;20068;-85
2023/06/29 09:24:19;;;;;;;30.45;26.80;;;22.90;99.90;;;;;;5072930;28;20040;-85
2023/06/29 09:26:48;;;;;;;30.63;27.42;;;22.90;99.90;;;;;;5056124;28;20593;-85
2023/06/29 09:29:14;;;;;;;32.33;27.83;;;22.90;99.90;;;;;;5073030;28;20036;-85
2023/06/29 09:31:39;;;;;;;30.83;27.50;;;22.90;99.90;;;;;;5055953;28;20036;-85
2023/06/29 09:34:28;;;;;;;31.13;27.80;;;22.90;99.90;;;;;;5074267;28;20076;-85
2023/06/29 09:36:55;;;;;;;30.65;26.77;;;22.90;99.90;;;;;;5050248;28;20048;-85
2023/06/29 09:39:21;;;;;;;31.17;27.85;;;22.90;99.90;;;;;;5055681;28;20033;-85
2023/06/29 09:41:47;;;;;;;30.92;27.63;;;22.90;99.90;;;;;;5055396;28;20044;-85
2023/06/29 09:44:19;;;;;;;31.55;28.25;;;22.90;99.90;;;;;;5072053;28;20036;-85
2023/06/29 09:46:46;;;;;;;31.80;27.90;;;22.90;99.90;;;;;;5052148;28;20125;-85
2023/06/29 09:49:12;;;;;;;27.10;24.27;;;22.90;99.90;;;;;;5052859;28;20143;-85
2023/06/29 09:51:38;;;;;;;28.88;25.70;;;22.80;99.90;;;;;;5052284;28;20541;-85
2023/06/29 09:54:04;;;;;;;29.25;26.13;;;22.80;99.90;;;;;;5052518;28;20044;-84
2023/06/29 09:56:33;;;;;;;26.80;23.90;;;22.80;99.90;;;;;;5034850;28;20045;-85
2023/06/29 09:59:01;;;;;;;26.52;23.70;;;22.70;99.90;;;;;;5071851;28;20048;-84
2023/06/29 10:01:28;;;;;;;26.55;23.55;;;22.70;99.90;;;;;;5053713;28;20041;-85
2023/06/29 10:03:54;;;;;;;27.08;24.17;;;22.70;99.90;;;;;;5052138;28;20037;-85
2023/06/29 10:06:41;;;;;;;26.88;23.98;;;22.60;99.90;;;;;;5035419;28;20037;-85
2023/06/29 10:09:08;;;;;;;27.75;24.75;;;22.50;99.90;;;;;;5034981;28;20045;-85
2023/06/29 10:11:36;;;;;;;27.83;24.92;;;22.40;99.90;;;;;;5035196;28;20087;-85
2023/06/29 10:14:04;;;;;;;28.67;24.88;;;22.40;99.90;;;;;;5035398;28;20037;-85
2023/06/29 10:16:34;;;;;;;28.58;25.58;;;22.40;99.90;;;;;;5051763;28;20079;-85
2023/06/29 10:19:18;;;;;;;31.58;27.38;;;22.30;99.90;;;;;;5051350;28;20041;-84
2023/06/29 10:21:44;;;;;;;29.98;26.85;;;22.30;99.90;;;;;;5035013;28;20044;-85
2023/06/29 10:24:17;;;;;;;31.30;27.30;;;22.20;99.90;;;;;;5035360;28;20068;-85
2023/06/29 10:26:43;;;;;;;28.98;25.90;;;22.20;99.90;;;;;;5052258;28;20403;-85
2023/06/29 10:29:09;;;;;;;30.02;26.80;;;22.10;99.90;;;;;;5051646;28;20051;-85
2023/06/29 10:31:35;;;;;;;30.85;27.65;;;22.10;99.90;;;;;;5035212;28;20045;-85
2023/06/29 10:34:05;;;;;;;30.83;27.52;;;22.10;99.90;;;;;;5051607;28;20087;-85
2023/06/29 10:36:45;;;;;;;32.20;28.70;;;22.00;99.90;;;;;;5051375;28;20044;-84
2023/06/29 10:39:39;;;;;;;33.08;29.52;;;22.00;99.90;;;;;;5063542;28;20068;-85
2023/06/29 10:42:32;;;;;;;33.13;29.55;;;22.00;99.90;;;;;;5053590;28;20028;-84
2023/06/29 10:44:58;;;;;;;32.58;29.08;;;21.90;99.90;;;;;;5053954;28;20048;-85
2023/06/29 10:47:36;;;;;;;33.33;29.83;;;21.80;99.90;;;;;;5070939;28;20044;-85
2023/06/29 10:50:11;;;;;;;33.88;30.30;;;21.90;99.90;;;;;;5069388;28;20044;-85
2023/06/29 10:52:42;;;;;;;32.92;29.52;;;21.90;99.90;;;;;;5068423;28;20036;-85
2023/06/29 10:55:38;;;;;;;33.80;30.20;;;21.90;99.90;;;;;;5053547;28;20051;-85
2023/06/29 10:58:30;;;;;;;33.58;29.98;;;21.90;99.90;;;;;;5051856;28;20040;-85
2023/06/29 11:00:56;;;;;;;34.42;30.70;;;22.00;99.90;;;;;;5066179;28;20057;-85
2023/06/29 11:03:23;;;;;;;33.72;30.13;;;22.00;99.90;;;;;;5054284;28;20028;-85
2023/06/29 11:05:50;;;;;;;34.63;30.38;;;22.10;99.90;;;;;;5054678;28;20490;-85
2023/06/29 11:08:19;;;;;;;34.28;30.55;;;22.10;99.90;;;;;;5071060;28;20052;-85
2023/06/29 11:10:44;;;;;;;35.30;31.60;;;22.30;99.90;;;;;;5070694;28;20506;-85
2023/06/29 11:13:11;;;;;;;35.05;31.25;;;22.30;99.90;;;;;;5070638;28;20076;-85
2023/06/29 11:15:37;;;;;;;34.38;30.77;;;22.40;99.90;;;;;;5054221;28;20072;-85
2023/06/29 11:18:05;;;;;;;35.80;32.03;;;22.50;99.90;;;;;;5070303;28;20036;-85
2023/06/29 11:20:31;;;;;;;35.72;32.03;;;22.60;99.90;;;;;;5069429;28;20033;-85
2023/06/29 11:22:57;;;;;;;35.20;31.42;;;22.70;99.90;;;;;;5052729;28;20120;-85
2023/06/29 11:25:25;;;;;;;33.50;29.90;;;22.70;99.90;;;;;;5071362;28;20561;-84
2023/06/29 11:27:52;;;;;;;32.78;29.33;;;22.90;99.90;;;;;;5070287;28;20036;-85
2023/06/29 11:30:20;;;;;;;28.27;25.27;;;23.00;99.90;;;;;;5070245;28;20070;-84
2023/06/29 11:32:49;;;;;;;25.73;22.95;;;23.10;99.90;;;;;;5053598;28;20040;-85
2023/06/29 11:35:15;;;;;;;27.45;23.55;;;23.10;99.90;;;;;;5070352;28;20037;-85
2023/06/29 11:37:41;;;;;;;26.25;23.40;;;23.30;99.90;;;;;;5052307;28;20116;-85
2023/06/29 11:40:22;;;;;;;26.10;23.30;;;23.40;99.90;;;;;;5069190;28;20028;-84
2023/06/29 11:42:49;;;;;;;29.40;24.92;;;23.50;99.90;;;;;;5069769;28;20283;-85
2023/06/29 11:45:16;;;;;;;26.63;23.60;;;23.60;99.90;;;;;;5070053;28;20094;-85
2023/06/29 11:47:49;;;;;;;26.63;23.77;;;23.70;99.90;;;;;;5052791;28;20123;-85
2023/06/29 11:50:15;;;;;;;29.45;26.27;;;23.80;99.90;;;;;;5068054;28;20041;-85
2023/06/29 11:52:42;;;;;;;27.70;24.75;;;24.10;99.90;;;;;;5069746;28;20075;-85
2023/06/29 11:55:10;;;;;;;28.92;24.30;;;24.20;99.90;;;;;;5069685;28;20405;-85
2023/06/29 11:57:40;;;;;;;27.40;24.55;;;24.20;99.90;;;;;;5052439;28;20270;-85
2023/06/29 12:00:30;;;;;;;25.48;22.77;;;24.20;99.90;;;;;;5069099;28;20047;-85
2023/06/29 12:02:56;;;;;;;24.83;22.13;;;24.40;99.90;;;;;;5068012;28;20037;-85
2023/06/29 12:05:27;;;;;;;24.40;21.83;;;24.40;99.90;;;;;;5052353;28;20033;-85
2023/06/29 12:07:53;;;;;;;26.23;23.20;;;24.40;99.90;;;;;;5051480;28;20397;-85
2023/06/29 12:10:23;;;;;;;23.83;21.25;;;24.50;99.90;;;;;;5069438;28;20555;-86
2023/06/29 12:12:59;;;;;;;23.13;20.58;;;24.60;99.90;;;;;;5069678;28;20550;-85
2023/06/29 12:15:31;;;;;;;39.40;21.20;;;24.70;99.90;;;;;;5052453;28;20051;-85
2023/06/29 12:18:28;;;;;;;;;;;24.80;99.90;;;;;;5069724;28;20375;-85
2023/06/29 12:20:53;;;;;;;24.75;22.15;;;24.80;99.00;;;;;;4992106;28;19922;-85
2023/06/29 12:23:21;;;;;;;30.20;21.60;;;24.80;98.80;;;;;;4976644;28;20038;-86
2023/06/29 12:25:50;;;;;;;26.10;21.75;;;24.90;99.00;;;;;;4976368;28;20519;-86
2023/06/29 12:28:16;;;;;;;25.23;21.85;;;24.80;98.80;;;;;;4992790;28;20613;-86